CYZP

Sandspit Airport

Sandspit, , Canada
METAR CYZP 170300Z AUTO 14007KT 9SM BKN190 BKN210 11/10 A3004 RMK SLP175
Observed Flight Rules
Oct-17 @ 03:00 UTC (an hour ago) Visual Flight Rules
Wind Visibility Clouds
140° at 7 knots 9 miles
  • Broken at 19,000' AGL
  • Broken at 21,000' AGL
Temperatures Readings
Current 11°C / 52°F
Dewpoint 10°C / 50°F
Humidity 94%
Altimeter 30.04" Hg
Pressure 1017.5 hPa
Elevation 6
METAR CYZP 170300Z AUTO 14007KT 9SM BKN190 BKN210 11/10 A3004 RMK SLP175
Observed Flight Rules
Oct-17 @ 03:00 UTC
(an hour ago)
VFR
Wind Visibility
140° at 7 knots 9 miles
Clouds
  • Broken at 19,000' AGL
  • Broken at 21,000' AGL
Temperature Dewpoint
11°C / 52°F 10°C / 50°F
Humidity Altimeter Pressure
94% 30.04" Hg 1017.5 hPa